aviador You're here:

MDSD Decoded Metar

SANTO DOMINGO in DOMINICAN REPUBLIC
Report Time2018-01-23 05:00:00
UTC Time2018-01-23 05:38:14
Flight Rules vfr VFR
Wind040° at 03 kt
W.Decomp.*RWY 35: 1.5 kt HW 2.6 kt RCW
W.Rank040° ranks 2
Current wind is below 040° avg. (5.4)
Visibility9999 m
Phenomena:N/A
Clouds:Scattered 018 Hf
Scattered 300 Hf
Expected CloudBase > 1,200 ft AGL from Temp-Dew spread
CeilingNone
Temp24°C (ISA +9)
Dew Point21°C (83% RH)
QNH1015 hPa
Density Alt1,378 ft
Elevation59 ft
Report Wrong Elevation
Raw Report
MDSD 230500Z 04003KT 9999 SCT018 SCT300 24/21 Q1015=

Extra information for MDSD:More info

Metar Taf Metar & Taf Last 4 Metars F.Rules Stats Wind Profile Meteogram Temp Stats Airport Information Weather charts Add Link Nearby VenuesMetar ALERT Operation Metar Decoded Social comments